sensor_id;sensor_type;location;lat;lon;timestamp;P1;durP1;ratioP1;P2;durP2;ratioP2
4517;SDS011;2271;49.464;11.070;2024-01-06T00:00:57;10.60;;;5.83;;
4517;SDS011;2271;49.464;11.070;2024-01-06T00:03:22;11.37;;;7.57;;
4517;SDS011;2271;49.464;11.070;2024-01-06T00:05:48;9.13;;;6.17;;
4517;SDS011;2271;49.464;11.070;2024-01-06T00:08:13;11.10;;;6.53;;
4517;SDS011;2271;49.464;11.070;2024-01-06T00:10:39;12.63;;;6.13;;
4517;SDS011;2271;49.464;11.070;2024-01-06T00:13:04;9.93;;;5.83;;
4517;SDS011;2271;49.464;11.070;2024-01-06T00:15:30;11.40;;;6.30;;
4517;SDS011;2271;49.464;11.070;2024-01-06T00:17:56;11.70;;;6.37;;
4517;SDS011;2271;49.464;11.070;2024-01-06T00:20:21;10.23;;;5.77;;
4517;SDS011;2271;49.464;11.070;2024-01-06T00:22:47;13.57;;;7.53;;
4517;SDS011;2271;49.464;11.070;2024-01-06T00:25:12;13.57;;;6.70;;
4517;SDS011;2271;49.464;11.070;2024-01-06T00:27:38;16.10;;;7.13;;
4517;SDS011;2271;49.464;11.070;2024-01-06T00:30:04;10.33;;;7.27;;
4517;SDS011;2271;49.464;11.070;2024-01-06T00:32:30;9.20;;;6.87;;
4517;SDS011;2271;49.464;11.070;2024-01-06T00:34:56;12.40;;;7.60;;
4517;SDS011;2271;49.464;11.070;2024-01-06T00:37:21;11.97;;;6.57;;
4517;SDS011;2271;49.464;11.070;2024-01-06T00:39:47;11.83;;;8.07;;
4517;SDS011;2271;49.464;11.070;2024-01-06T00:42:12;13.13;;;8.13;;
4517;SDS011;2271;49.464;11.070;2024-01-06T00:44:38;12.60;;;7.50;;
4517;SDS011;2271;49.464;11.070;2024-01-06T00:47:04;10.50;;;6.87;;
4517;SDS011;2271;49.464;11.070;2024-01-06T00:49:29;12.17;;;7.47;;
4517;SDS011;2271;49.464;11.070;2024-01-06T00:51:55;14.93;;;8.03;;
4517;SDS011;2271;49.464;11.070;2024-01-06T00:54:20;11.83;;;7.77;;
4517;SDS011;2271;49.464;11.070;2024-01-06T00:56:46;12.17;;;6.83;;
4517;SDS011;2271;49.464;11.070;2024-01-06T00:59:12;10.47;;;7.63;;
4517;SDS011;2271;49.464;11.070;2024-01-06T01:01:37;11.17;;;7.43;;
4517;SDS011;2271;49.464;11.070;2024-01-06T01:04:03;12.93;;;7.60;;
4517;SDS011;2271;49.464;11.070;2024-01-06T01:06:29;12.40;;;8.07;;
4517;SDS011;2271;49.464;11.070;2024-01-06T01:08:55;15.30;;;8.13;;
4517;SDS011;2271;49.464;11.070;2024-01-06T01:11:21;14.17;;;7.60;;
4517;SDS011;2271;49.464;11.070;2024-01-06T01:13:46;13.10;;;7.60;;
4517;SDS011;2271;49.464;11.070;2024-01-06T01:16:12;11.27;;;7.07;;
4517;SDS011;2271;49.464;11.070;2024-01-06T01:18:37;10.53;;;7.73;;
4517;SDS011;2271;49.464;11.070;2024-01-06T01:21:03;13.37;;;6.70;;
4517;SDS011;2271;49.464;11.070;2024-01-06T01:23:29;14.80;;;7.33;;
4517;SDS011;2271;49.464;11.070;2024-01-06T01:25:54;11.40;;;6.80;;
4517;SDS011;2271;49.464;11.070;2024-01-06T01:28:20;13.87;;;7.90;;
4517;SDS011;2271;49.464;11.070;2024-01-06T01:30:46;13.10;;;7.07;;
4517;SDS011;2271;49.464;11.070;2024-01-06T01:33:11;11.70;;;6.40;;
4517;SDS011;2271;49.464;11.070;2024-01-06T01:35:37;12.63;;;6.67;;
4517;SDS011;2271;49.464;11.070;2024-01-06T01:38:02;10.77;;;6.53;;
4517;SDS011;2271;49.464;11.070;2024-01-06T01:40:28;11.80;;;7.07;;
4517;SDS011;2271;49.464;11.070;2024-01-06T01:42:54;11.20;;;6.30;;
4517;SDS011;2271;49.464;11.070;2024-01-06T01:45:19;11.37;;;6.73;;
4517;SDS011;2271;49.464;11.070;2024-01-06T01:47:45;10.27;;;6.90;;
4517;SDS011;2271;49.464;11.070;2024-01-06T01:50:11;10.47;;;6.17;;
4517;SDS011;2271;49.464;11.070;2024-01-06T01:52:37;10.37;;;6.27;;
4517;SDS011;2271;49.464;11.070;2024-01-06T01:55:07;12.00;;;6.70;;
4517;SDS011;2271;49.464;11.070;2024-01-06T01:57:33;12.10;;;6.90;;
4517;SDS011;2271;49.464;11.070;2024-01-06T01:59:59;11.67;;;6.20;;
4517;SDS011;2271;49.464;11.070;2024-01-06T02:02:26;8.90;;;6.10;;
4517;SDS011;2271;49.464;11.070;2024-01-06T02:04:54;12.97;;;6.00;;
4517;SDS011;2271;49.464;11.070;2024-01-06T02:07:21;10.00;;;6.40;;
4517;SDS011;2271;49.464;11.070;2024-01-06T02:09:46;9.87;;;6.17;;
4517;SDS011;2271;49.464;11.070;2024-01-06T02:12:12;8.77;;;5.93;;
4517;SDS011;2271;49.464;11.070;2024-01-06T02:14:38;12.53;;;6.60;;
4517;SDS011;2271;49.464;11.070;2024-01-06T02:17:03;10.27;;;6.50;;
4517;SDS011;2271;49.464;11.070;2024-01-06T02:19:29;11.03;;;6.30;;
4517;SDS011;2271;49.464;11.070;2024-01-06T02:21:54;11.73;;;6.13;;
4517;SDS011;2271;49.464;11.070;2024-01-06T02:24:20;11.60;;;7.13;;
4517;SDS011;2271;49.464;11.070;2024-01-06T02:26:46;9.10;;;6.40;;
4517;SDS011;2271;49.464;11.070;2024-01-06T02:29:12;8.20;;;5.67;;
4517;SDS011;2271;49.464;11.070;2024-01-06T02:31:38;7.40;;;5.67;;
4517;SDS011;2271;49.464;11.070;2024-01-06T02:34:03;14.17;;;5.83;;
4517;SDS011;2271;49.464;11.070;2024-01-06T02:36:29;8.97;;;5.93;;
4517;SDS011;2271;49.464;11.070;2024-01-06T02:38:55;8.33;;;5.87;;
4517;SDS011;2271;49.464;11.070;2024-01-06T02:41:20;8.73;;;5.97;;
4517;SDS011;2271;49.464;11.070;2024-01-06T02:43:46;11.33;;;6.23;;
4517;SDS011;2271;49.464;11.070;2024-01-06T02:46:12;9.17;;;6.57;;
4517;SDS011;2271;49.464;11.070;2024-01-06T02:48:37;10.13;;;5.80;;
4517;SDS011;2271;49.464;11.070;2024-01-06T02:51:03;9.37;;;5.73;;
4517;SDS011;2271;49.464;11.070;2024-01-06T02:53:29;9.03;;;5.80;;
4517;SDS011;2271;49.464;11.070;2024-01-06T02:55:54;8.43;;;4.77;;
4517;SDS011;2271;49.464;11.070;2024-01-06T02:58:20;11.80;;;5.93;;
4517;SDS011;2271;49.464;11.070;2024-01-06T03:00:46;7.13;;;5.40;;
4517;SDS011;2271;49.464;11.070;2024-01-06T03:03:11;6.17;;;5.20;;
4517;SDS011;2271;49.464;11.070;2024-01-06T03:05:37;8.97;;;5.70;;
4517;SDS011;2271;49.464;11.070;2024-01-06T03:08:03;8.07;;;4.80;;
4517;SDS011;2271;49.464;11.070;2024-01-06T03:10:29;8.60;;;5.63;;
4517;SDS011;2271;49.464;11.070;2024-01-06T03:12:55;8.20;;;4.93;;
4517;SDS011;2271;49.464;11.070;2024-01-06T03:15:20;9.97;;;4.63;;
4517;SDS011;2271;49.464;11.070;2024-01-06T03:17:47;8.33;;;5.33;;
4517;SDS011;2271;49.464;11.070;2024-01-06T03:20:13;7.90;;;4.63;;
4517;SDS011;2271;49.464;11.070;2024-01-06T03:22:38;5.63;;;4.67;;
4517;SDS011;2271;49.464;11.070;2024-01-06T03:25:04;5.53;;;4.27;;
4517;SDS011;2271;49.464;11.070;2024-01-06T03:27:31;5.63;;;4.67;;
4517;SDS011;2271;49.464;11.070;2024-01-06T03:29:56;7.00;;;4.30;;
4517;SDS011;2271;49.464;11.070;2024-01-06T03:32:22;6.90;;;4.20;;
4517;SDS011;2271;49.464;11.070;2024-01-06T03:34:49;9.50;;;4.10;;
4517;SDS011;2271;49.464;11.070;2024-01-06T03:37:15;8.70;;;4.50;;
4517;SDS011;2271;49.464;11.070;2024-01-06T03:39:40;6.97;;;4.50;;
4517;SDS011;2271;49.464;11.070;2024-01-06T03:42:06;7.63;;;4.63;;
4517;SDS011;2271;49.464;11.070;2024-01-06T03:44:32;9.57;;;5.27;;
4517;SDS011;2271;49.464;11.070;2024-01-06T03:46:58;5.67;;;3.97;;
4517;SDS011;2271;49.464;11.070;2024-01-06T03:49:24;11.57;;;4.50;;
4517;SDS011;2271;49.464;11.070;2024-01-06T03:51:50;10.77;;;4.83;;
4517;SDS011;2271;49.464;11.070;2024-01-06T03:54:16;10.43;;;4.30;;
4517;SDS011;2271;49.464;11.070;2024-01-06T03:56:42;7.07;;;4.47;;
4517;SDS011;2271;49.464;11.070;2024-01-06T03:59:08;8.83;;;4.57;;
4517;SDS011;2271;49.464;11.070;2024-01-06T04:01:34;7.33;;;4.50;;
4517;SDS011;2271;49.464;11.070;2024-01-06T04:04:03;6.60;;;4.50;;
4517;SDS011;2271;49.464;11.070;2024-01-06T04:06:29;7.97;;;5.40;;
4517;SDS011;2271;49.464;11.070;2024-01-06T04:08:57;6.43;;;4.63;;
4517;SDS011;2271;49.464;11.070;2024-01-06T04:11:22;9.53;;;4.47;;
4517;SDS011;2271;49.464;11.070;2024-01-06T04:13:48;6.03;;;4.00;;
4517;SDS011;2271;49.464;11.070;2024-01-06T04:16:14;5.67;;;4.13;;
4517;SDS011;2271;49.464;11.070;2024-01-06T04:18:39;9.93;;;3.80;;
4517;SDS011;2271;49.464;11.070;2024-01-06T04:21:05;6.63;;;4.30;;
4517;SDS011;2271;49.464;11.070;2024-01-06T04:23:31;7.07;;;4.50;;
4517;SDS011;2271;49.464;11.070;2024-01-06T04:25:56;6.77;;;4.10;;
4517;SDS011;2271;49.464;11.070;2024-01-06T04:28:22;8.20;;;4.33;;
4517;SDS011;2271;49.464;11.070;2024-01-06T04:30:48;6.80;;;3.70;;
4517;SDS011;2271;49.464;11.070;2024-01-06T04:33:14;5.70;;;4.20;;
4517;SDS011;2271;49.464;11.070;2024-01-06T04:35:39;8.53;;;4.20;;
4517;SDS011;2271;49.464;11.070;2024-01-06T04:38:05;7.83;;;4.63;;
4517;SDS011;2271;49.464;11.070;2024-01-06T04:40:31;7.40;;;4.23;;
4517;SDS011;2271;49.464;11.070;2024-01-06T04:42:56;8.63;;;4.13;;
4517;SDS011;2271;49.464;11.070;2024-01-06T04:45:22;6.17;;;4.23;;
4517;SDS011;2271;49.464;11.070;2024-01-06T04:47:49;7.07;;;4.10;;
4517;SDS011;2271;49.464;11.070;2024-01-06T04:50:15;5.93;;;3.70;;
4517;SDS011;2271;49.464;11.070;2024-01-06T04:52:42;4.90;;;3.80;;
4517;SDS011;2271;49.464;11.070;2024-01-06T04:55:08;5.97;;;3.90;;
4517;SDS011;2271;49.464;11.070;2024-01-06T04:57:34;6.20;;;4.07;;
4517;SDS011;2271;49.464;11.070;2024-01-06T05:00:00;5.60;;;3.87;;
4517;SDS011;2271;49.464;11.070;2024-01-06T05:02:26;5.83;;;3.83;;
4517;SDS011;2271;49.464;11.070;2024-01-06T05:04:51;6.37;;;3.83;;
4517;SDS011;2271;49.464;11.070;2024-01-06T05:07:17;6.40;;;4.03;;
4517;SDS011;2271;49.464;11.070;2024-01-06T05:09:43;6.83;;;4.20;;
4517;SDS011;2271;49.464;11.070;2024-01-06T05:12:08;6.67;;;4.23;;
4517;SDS011;2271;49.464;11.070;2024-01-06T05:14:34;7.83;;;3.97;;
4517;SDS011;2271;49.464;11.070;2024-01-06T05:16:59;6.20;;;3.97;;
4517;SDS011;2271;49.464;11.070;2024-01-06T05:19:25;10.07;;;4.37;;
4517;SDS011;2271;49.464;11.070;2024-01-06T05:21:51;6.60;;;4.40;;
4517;SDS011;2271;49.464;11.070;2024-01-06T05:24:17;6.83;;;3.77;;
4517;SDS011;2271;49.464;11.070;2024-01-06T05:26:44;8.73;;;4.03;;
4517;SDS011;2271;49.464;11.070;2024-01-06T05:29:09;7.10;;;3.53;;
4517;SDS011;2271;49.464;11.070;2024-01-06T05:31:35;5.67;;;4.57;;
4517;SDS011;2271;49.464;11.070;2024-01-06T05:34:01;5.73;;;3.90;;
4517;SDS011;2271;49.464;11.070;2024-01-06T05:36:26;4.90;;;3.37;;
4517;SDS011;2271;49.464;11.070;2024-01-06T05:38:52;5.33;;;4.00;;
4517;SDS011;2271;49.464;11.070;2024-01-06T05:41:18;6.20;;;3.67;;
4517;SDS011;2271;49.464;11.070;2024-01-06T05:43:43;8.07;;;4.10;;
4517;SDS011;2271;49.464;11.070;2024-01-06T05:46:09;5.63;;;4.40;;
4517;SDS011;2271;49.464;11.070;2024-01-06T05:48:35;5.20;;;3.97;;
4517;SDS011;2271;49.464;11.070;2024-01-06T05:51:01;7.30;;;4.47;;
4517;SDS011;2271;49.464;11.070;2024-01-06T05:53:30;9.03;;;3.90;;
4517;SDS011;2271;49.464;11.070;2024-01-06T05:56:01;9.30;;;4.33;;
4517;SDS011;2271;49.464;11.070;2024-01-06T05:58:26;9.43;;;3.47;;
4517;SDS011;2271;49.464;11.070;2024-01-06T06:00:52;5.70;;;3.37;;
4517;SDS011;2271;49.464;11.070;2024-01-06T06:03:18;6.07;;;3.77;;
4517;SDS011;2271;49.464;11.070;2024-01-06T06:05:43;6.40;;;3.93;;
4517;SDS011;2271;49.464;11.070;2024-01-06T06:08:10;6.93;;;4.03;;
4517;SDS011;2271;49.464;11.070;2024-01-06T06:10:35;5.77;;;4.00;;
4517;SDS011;2271;49.464;11.070;2024-01-06T06:13:24;8.43;;;4.10;;
4517;SDS011;2271;49.464;11.070;2024-01-06T06:15:50;8.13;;;3.67;;
4517;SDS011;2271;49.464;11.070;2024-01-06T06:18:15;7.27;;;3.77;;
4517;SDS011;2271;49.464;11.070;2024-01-06T06:20:41;5.67;;;3.73;;
4517;SDS011;2271;49.464;11.070;2024-01-06T06:23:08;5.10;;;3.63;;
4517;SDS011;2271;49.464;11.070;2024-01-06T06:25:34;3.63;;;3.30;;
4517;SDS011;2271;49.464;11.070;2024-01-06T06:28:03;8.37;;;3.60;;
4517;SDS011;2271;49.464;11.070;2024-01-06T06:30:29;9.83;;;3.93;;
4517;SDS011;2271;49.464;11.070;2024-01-06T06:32:55;13.57;;;4.20;;
4517;SDS011;2271;49.464;11.070;2024-01-06T06:35:20;6.13;;;3.77;;
4517;SDS011;2271;49.464;11.070;2024-01-06T06:37:46;6.93;;;3.77;;
4517;SDS011;2271;49.464;11.070;2024-01-06T06:40:12;7.30;;;3.53;;
4517;SDS011;2271;49.464;11.070;2024-01-06T06:42:38;4.60;;;3.73;;
4517;SDS011;2271;49.464;11.070;2024-01-06T06:45:04;4.27;;;3.83;;
4517;SDS011;2271;49.464;11.070;2024-01-06T06:47:30;5.13;;;3.73;;
4517;SDS011;2271;49.464;11.070;2024-01-06T06:49:55;6.53;;;3.60;;
4517;SDS011;2271;49.464;11.070;2024-01-06T06:52:21;7.10;;;3.50;;
4517;SDS011;2271;49.464;11.070;2024-01-06T06:54:47;7.57;;;5.30;;
4517;SDS011;2271;49.464;11.070;2024-01-06T06:57:14;7.63;;;4.10;;
4517;SDS011;2271;49.464;11.070;2024-01-06T06:59:40;6.53;;;3.60;;
4517;SDS011;2271;49.464;11.070;2024-01-06T07:02:06;9.10;;;4.27;;
4517;SDS011;2271;49.464;11.070;2024-01-06T07:04:32;5.13;;;3.50;;
4517;SDS011;2271;49.464;11.070;2024-01-06T07:06:57;4.43;;;3.27;;
4517;SDS011;2271;49.464;11.070;2024-01-06T07:09:23;7.07;;;3.83;;
4517;SDS011;2271;49.464;11.070;2024-01-06T07:11:49;4.53;;;3.33;;
4517;SDS011;2271;49.464;11.070;2024-01-06T07:14:15;5.87;;;3.47;;
4517;SDS011;2271;49.464;11.070;2024-01-06T07:16:41;6.40;;;3.37;;
4517;SDS011;2271;49.464;11.070;2024-01-06T07:19:07;7.70;;;4.10;;
4517;SDS011;2271;49.464;11.070;2024-01-06T07:21:32;7.23;;;3.70;;
4517;SDS011;2271;49.464;11.070;2024-01-06T07:23:58;7.27;;;3.77;;
4517;SDS011;2271;49.464;11.070;2024-01-06T07:26:26;6.17;;;3.43;;
4517;SDS011;2271;49.464;11.070;2024-01-06T07:28:51;5.33;;;3.03;;
4517;SDS011;2271;49.464;11.070;2024-01-06T07:31:17;5.27;;;3.37;;
4517;SDS011;2271;49.464;11.070;2024-01-06T07:33:44;4.70;;;3.30;;
4517;SDS011;2271;49.464;11.070;2024-01-06T07:36:09;9.07;;;4.33;;
4517;SDS011;2271;49.464;11.070;2024-01-06T07:38:35;6.97;;;3.77;;
4517;SDS011;2271;49.464;11.070;2024-01-06T07:41:01;5.63;;;4.13;;
4517;SDS011;2271;49.464;11.070;2024-01-06T07:43:29;4.70;;;3.40;;
4517;SDS011;2271;49.464;11.070;2024-01-06T07:45:55;5.40;;;3.60;;
4517;SDS011;2271;49.464;11.070;2024-01-06T07:48:20;3.90;;;3.17;;
4517;SDS011;2271;49.464;11.070;2024-01-06T07:50:46;5.37;;;3.40;;
4517;SDS011;2271;49.464;11.070;2024-01-06T07:53:12;8.50;;;4.60;;
4517;SDS011;2271;49.464;11.070;2024-01-06T07:55:39;4.27;;;3.67;;
4517;SDS011;2271;49.464;11.070;2024-01-06T07:58:05;4.53;;;3.13;;
4517;SDS011;2271;49.464;11.070;2024-01-06T08:00:31;3.40;;;2.93;;
4517;SDS011;2271;49.464;11.070;2024-01-06T08:02:56;7.10;;;3.33;;
4517;SDS011;2271;49.464;11.070;2024-01-06T08:05:22;4.67;;;3.37;;
4517;SDS011;2271;49.464;11.070;2024-01-06T08:07:48;5.57;;;3.97;;
4517;SDS011;2271;49.464;11.070;2024-01-06T08:10:16;5.60;;;3.70;;
4517;SDS011;2271;49.464;11.070;2024-01-06T08:12:41;6.40;;;3.33;;
4517;SDS011;2271;49.464;11.070;2024-01-06T08:15:07;6.17;;;3.73;;
4517;SDS011;2271;49.464;11.070;2024-01-06T08:17:34;7.60;;;4.23;;
4517;SDS011;2271;49.464;11.070;2024-01-06T08:20:00;7.77;;;3.73;;
4517;SDS011;2271;49.464;11.070;2024-01-06T08:22:26;8.80;;;3.93;;
4517;SDS011;2271;49.464;11.070;2024-01-06T08:24:52;7.17;;;4.27;;
4517;SDS011;2271;49.464;11.070;2024-01-06T08:27:17;4.60;;;3.53;;
4517;SDS011;2271;49.464;11.070;2024-01-06T08:29:43;5.27;;;4.03;;
4517;SDS011;2271;49.464;11.070;2024-01-06T08:32:08;8.83;;;4.60;;
4517;SDS011;2271;49.464;11.070;2024-01-06T08:34:35;7.60;;;4.30;;
4517;SDS011;2271;49.464;11.070;2024-01-06T08:37:00;10.27;;;4.70;;
4517;SDS011;2271;49.464;11.070;2024-01-06T08:39:26;8.10;;;4.37;;
4517;SDS011;2271;49.464;11.070;2024-01-06T08:41:51;9.20;;;4.57;;
4517;SDS011;2271;49.464;11.070;2024-01-06T08:44:17;9.23;;;5.10;;
4517;SDS011;2271;49.464;11.070;2024-01-06T08:46:43;5.37;;;4.50;;
4517;SDS011;2271;49.464;11.070;2024-01-06T08:49:08;6.13;;;4.57;;
4517;SDS011;2271;49.464;11.070;2024-01-06T08:51:34;7.00;;;4.57;;
4517;SDS011;2271;49.464;11.070;2024-01-06T08:54:00;6.37;;;4.80;;
4517;SDS011;2271;49.464;11.070;2024-01-06T08:56:29;6.27;;;5.27;;
4517;SDS011;2271;49.464;11.070;2024-01-06T08:58:55;8.43;;;4.83;;
4517;SDS011;2271;49.464;11.070;2024-01-06T09:01:22;5.23;;;4.70;;
4517;SDS011;2271;49.464;11.070;2024-01-06T09:03:47;7.77;;;4.93;;
4517;SDS011;2271;49.464;11.070;2024-01-06T09:06:14;7.50;;;5.37;;
4517;SDS011;2271;49.464;11.070;2024-01-06T09:08:40;7.17;;;5.23;;
4517;SDS011;2271;49.464;11.070;2024-01-06T09:11:06;5.40;;;4.77;;
4517;SDS011;2271;49.464;11.070;2024-01-06T09:13:31;10.07;;;5.50;;
4517;SDS011;2271;49.464;11.070;2024-01-06T09:15:57;8.63;;;5.47;;
4517;SDS011;2271;49.464;11.070;2024-01-06T09:18:25;6.10;;;5.13;;
4517;SDS011;2271;49.464;11.070;2024-01-06T09:20:51;7.37;;;5.77;;
4517;SDS011;2271;49.464;11.070;2024-01-06T09:23:17;6.70;;;4.60;;
4517;SDS011;2271;49.464;11.070;2024-01-06T09:25:42;9.83;;;4.80;;
4517;SDS011;2271;49.464;11.070;2024-01-06T09:28:08;8.97;;;5.60;;
4517;SDS011;2271;49.464;11.070;2024-01-06T09:30:35;7.63;;;5.63;;
4517;SDS011;2271;49.464;11.070;2024-01-06T09:33:02;8.23;;;5.50;;
4517;SDS011;2271;49.464;11.070;2024-01-06T09:35:28;8.30;;;5.60;;
4517;SDS011;2271;49.464;11.070;2024-01-06T09:37:53;5.57;;;4.87;;
4517;SDS011;2271;49.464;11.070;2024-01-06T09:40:22;10.20;;;6.33;;
4517;SDS011;2271;49.464;11.070;2024-01-06T09:42:49;6.63;;;5.37;;
4517;SDS011;2271;49.464;11.070;2024-01-06T09:45:15;8.90;;;5.50;;
4517;SDS011;2271;49.464;11.070;2024-01-06T09:47:41;8.27;;;5.73;;
4517;SDS011;2271;49.464;11.070;2024-01-06T09:50:10;8.93;;;5.70;;
4517;SDS011;2271;49.464;11.070;2024-01-06T09:52:39;8.67;;;5.67;;
4517;SDS011;2271;49.464;11.070;2024-01-06T09:55:12;6.87;;;5.63;;
4517;SDS011;2271;49.464;11.070;2024-01-06T09:57:38;8.40;;;6.20;;
4517;SDS011;2271;49.464;11.070;2024-01-06T10:00:04;8.13;;;6.00;;
4517;SDS011;2271;49.464;11.070;2024-01-06T10:02:30;7.93;;;6.47;;
4517;SDS011;2271;49.464;11.070;2024-01-06T10:04:59;9.70;;;5.93;;
4517;SDS011;2271;49.464;11.070;2024-01-06T10:07:28;8.77;;;5.53;;
4517;SDS011;2271;49.464;11.070;2024-01-06T10:09:54;7.33;;;5.83;;
4517;SDS011;2271;49.464;11.070;2024-01-06T10:12:24;10.07;;;6.00;;
4517;SDS011;2271;49.464;11.070;2024-01-06T10:14:50;6.47;;;5.40;;
4517;SDS011;2271;49.464;11.070;2024-01-06T10:17:16;8.10;;;6.07;;
4517;SDS011;2271;49.464;11.070;2024-01-06T10:19:44;8.30;;;5.30;;
4517;SDS011;2271;49.464;11.070;2024-01-06T10:22:10;9.00;;;5.90;;
4517;SDS011;2271;49.464;11.070;2024-01-06T10:24:38;8.83;;;6.27;;
4517;SDS011;2271;49.464;11.070;2024-01-06T10:27:04;11.27;;;7.13;;
4517;SDS011;2271;49.464;11.070;2024-01-06T10:29:30;8.83;;;6.63;;
4517;SDS011;2271;49.464;11.070;2024-01-06T10:31:56;7.10;;;6.40;;
4517;SDS011;2271;49.464;11.070;2024-01-06T10:34:23;10.10;;;6.13;;
4517;SDS011;2271;49.464;11.070;2024-01-06T10:36:49;11.60;;;6.00;;
4517;SDS011;2271;49.464;11.070;2024-01-06T10:39:17;6.10;;;5.50;;
4517;SDS011;2271;49.464;11.070;2024-01-06T10:41:43;9.70;;;5.93;;
4517;SDS011;2271;49.464;11.070;2024-01-06T10:44:10;10.10;;;5.70;;
4517;SDS011;2271;49.464;11.070;2024-01-06T10:46:36;6.50;;;5.17;;
4517;SDS011;2271;49.464;11.070;2024-01-06T10:49:05;8.23;;;5.47;;
4517;SDS011;2271;49.464;11.070;2024-01-06T10:51:33;10.43;;;5.80;;
4517;SDS011;2271;49.464;11.070;2024-01-06T10:54:00;7.33;;;5.70;;
4517;SDS011;2271;49.464;11.070;2024-01-06T10:56:26;9.30;;;6.17;;
4517;SDS011;2271;49.464;11.070;2024-01-06T10:58:54;6.53;;;5.20;;
4517;SDS011;2271;49.464;11.070;2024-01-06T11:01:23;10.13;;;5.00;;
4517;SDS011;2271;49.464;11.070;2024-01-06T11:03:52;11.40;;;5.87;;
4517;SDS011;2271;49.464;11.070;2024-01-06T11:06:19;8.23;;;5.07;;
4517;SDS011;2271;49.464;11.070;2024-01-06T11:08:48;8.27;;;5.30;;
4517;SDS011;2271;49.464;11.070;2024-01-06T11:11:18;8.03;;;5.20;;
4517;SDS011;2271;49.464;11.070;2024-01-06T11:13:45;6.27;;;4.90;;
4517;SDS011;2271;49.464;11.070;2024-01-06T11:16:32;8.30;;;4.93;;
4517;SDS011;2271;49.464;11.070;2024-01-06T11:19:01;9.13;;;4.70;;
4517;SDS011;2271;49.464;11.070;2024-01-06T11:21:27;6.67;;;4.80;;
4517;SDS011;2271;49.464;11.070;2024-01-06T11:24:15;8.47;;;4.20;;
4517;SDS011;2271;49.464;11.070;2024-01-06T11:26:49;7.30;;;5.07;;
4517;SDS011;2271;49.464;11.070;2024-01-06T11:29:16;8.40;;;4.90;;
4517;SDS011;2271;49.464;11.070;2024-01-06T11:31:48;10.03;;;5.13;;
4517;SDS011;2271;49.464;11.070;2024-01-06T11:34:41;9.33;;;5.17;;
4517;SDS011;2271;49.464;11.070;2024-01-06T11:37:07;5.87;;;4.53;;
4517;SDS011;2271;49.464;11.070;2024-01-06T11:39:37;10.03;;;4.53;;
4517;SDS011;2271;49.464;11.070;2024-01-06T11:42:05;6.23;;;4.27;;
4517;SDS011;2271;49.464;11.070;2024-01-06T11:44:34;11.87;;;5.07;;
4517;SDS011;2271;49.464;11.070;2024-01-06T11:47:02;7.27;;;4.67;;
4517;SDS011;2271;49.464;11.070;2024-01-06T11:49:29;6.40;;;4.63;;
4517;SDS011;2271;49.464;11.070;2024-01-06T11:51:56;6.17;;;4.33;;
4517;SDS011;2271;49.464;11.070;2024-01-06T11:54:22;6.60;;;4.53;;
4517;SDS011;2271;49.464;11.070;2024-01-06T11:56:48;11.70;;;5.00;;
4517;SDS011;2271;49.464;11.070;2024-01-06T11:59:14;7.07;;;4.47;;
4517;SDS011;2271;49.464;11.070;2024-01-06T12:01:40;7.97;;;5.50;;
4517;SDS011;2271;49.464;11.070;2024-01-06T12:04:06;7.43;;;4.83;;
4517;SDS011;2271;49.464;11.070;2024-01-06T12:06:32;8.03;;;4.83;;
4517;SDS011;2271;49.464;11.070;2024-01-06T12:11:30;5.63;;;4.40;;
4517;SDS011;2271;49.464;11.070;2024-01-06T12:13:56;6.97;;;4.40;;
4517;SDS011;2271;49.464;11.070;2024-01-06T12:16:22;5.77;;;4.17;;
4517;SDS011;2271;49.464;11.070;2024-01-06T12:18:52;6.93;;;4.67;;
4517;SDS011;2271;49.464;11.070;2024-01-06T12:21:22;7.00;;;4.77;;
4517;SDS011;2271;49.464;11.070;2024-01-06T12:23:48;4.90;;;4.17;;
4517;SDS011;2271;49.464;11.070;2024-01-06T12:26:14;6.57;;;4.90;;
4517;SDS011;2271;49.464;11.070;2024-01-06T12:28:39;6.77;;;5.43;;
4517;SDS011;2271;49.464;11.070;2024-01-06T12:31:08;9.37;;;5.47;;
4517;SDS011;2271;49.464;11.070;2024-01-06T12:33:35;8.60;;;5.50;;
4517;SDS011;2271;49.464;11.070;2024-01-06T12:36:02;8.73;;;5.00;;
4517;SDS011;2271;49.464;11.070;2024-01-06T12:38:31;8.87;;;4.70;;
4517;SDS011;2271;49.464;11.070;2024-01-06T12:40:57;7.67;;;4.20;;
4517;SDS011;2271;49.464;11.070;2024-01-06T12:43:22;5.63;;;4.20;;
4517;SDS011;2271;49.464;11.070;2024-01-06T12:45:48;4.30;;;3.90;;
4517;SDS011;2271;49.464;11.070;2024-01-06T12:48:17;5.30;;;3.80;;
4517;SDS011;2271;49.464;11.070;2024-01-06T12:50:43;5.90;;;4.33;;
4517;SDS011;2271;49.464;11.070;2024-01-06T12:53:09;12.77;;;4.17;;
4517;SDS011;2271;49.464;11.070;2024-01-06T12:55:37;7.57;;;4.73;;
4517;SDS011;2271;49.464;11.070;2024-01-06T12:58:02;7.73;;;4.57;;
4517;SDS011;2271;49.464;11.070;2024-01-06T13:00:29;7.37;;;4.10;;
4517;SDS011;2271;49.464;11.070;2024-01-06T13:02:55;9.63;;;3.90;;
4517;SDS011;2271;49.464;11.070;2024-01-06T13:05:21;7.73;;;4.53;;
4517;SDS011;2271;49.464;11.070;2024-01-06T13:07:47;5.57;;;4.20;;
4517;SDS011;2271;49.464;11.070;2024-01-06T13:10:14;5.70;;;4.03;;
4517;SDS011;2271;49.464;11.070;2024-01-06T13:12:40;6.03;;;4.40;;
4517;SDS011;2271;49.464;11.070;2024-01-06T13:15:06;8.87;;;5.00;;
4517;SDS011;2271;49.464;11.070;2024-01-06T13:17:36;6.33;;;4.50;;
4517;SDS011;2271;49.464;11.070;2024-01-06T13:20:02;10.53;;;4.90;;
4517;SDS011;2271;49.464;11.070;2024-01-06T13:22:29;5.87;;;4.33;;
4517;SDS011;2271;49.464;11.070;2024-01-06T13:24:55;7.63;;;4.40;;
4517;SDS011;2271;49.464;11.070;2024-01-06T13:27:21;8.63;;;5.37;;
4517;SDS011;2271;49.464;11.070;2024-01-06T13:29:47;7.10;;;4.57;;
4517;SDS011;2271;49.464;11.070;2024-01-06T13:32:13;8.00;;;4.80;;
4517;SDS011;2271;49.464;11.070;2024-01-06T13:34:40;9.47;;;5.67;;
4517;SDS011;2271;49.464;11.070;2024-01-06T13:37:06;5.83;;;4.50;;
4517;SDS011;2271;49.464;11.070;2024-01-06T13:39:32;11.93;;;5.23;;
4517;SDS011;2271;49.464;11.070;2024-01-06T13:41:58;5.73;;;4.73;;
4517;SDS011;2271;49.464;11.070;2024-01-06T13:44:24;7.97;;;4.70;;
4517;SDS011;2271;49.464;11.070;2024-01-06T13:46:50;6.30;;;4.63;;
4517;SDS011;2271;49.464;11.070;2024-01-06T13:49:16;7.50;;;5.13;;
4517;SDS011;2271;49.464;11.070;2024-01-06T13:51:42;11.10;;;6.03;;
4517;SDS011;2271;49.464;11.070;2024-01-06T13:54:09;7.63;;;5.77;;
4517;SDS011;2271;49.464;11.070;2024-01-06T13:56:35;8.00;;;5.27;;
4517;SDS011;2271;49.464;11.070;2024-01-06T13:59:02;7.53;;;4.90;;
4517;SDS011;2271;49.464;11.070;2024-01-06T14:01:27;7.60;;;5.40;;
4517;SDS011;2271;49.464;11.070;2024-01-06T14:03:54;9.53;;;6.30;;
4517;SDS011;2271;49.464;11.070;2024-01-06T14:06:26;7.73;;;4.80;;
4517;SDS011;2271;49.464;11.070;2024-01-06T14:08:58;7.43;;;4.93;;
4517;SDS011;2271;49.464;11.070;2024-01-06T14:11:25;8.37;;;4.90;;
4517;SDS011;2271;49.464;11.070;2024-01-06T14:13:52;10.33;;;6.87;;
4517;SDS011;2271;49.464;11.070;2024-01-06T14:16:18;12.13;;;6.50;;
4517;SDS011;2271;49.464;11.070;2024-01-06T14:18:45;7.37;;;4.87;;
4517;SDS011;2271;49.464;11.070;2024-01-06T14:21:11;6.17;;;4.13;;
4517;SDS011;2271;49.464;11.070;2024-01-06T14:23:40;6.73;;;4.80;;
4517;SDS011;2271;49.464;11.070;2024-01-06T14:26:06;5.87;;;4.10;;
4517;SDS011;2271;49.464;11.070;2024-01-06T14:28:32;7.73;;;4.50;;
4517;SDS011;2271;49.464;11.070;2024-01-06T14:30:57;5.53;;;4.47;;
4517;SDS011;2271;49.464;11.070;2024-01-06T14:33:23;6.87;;;4.87;;
4517;SDS011;2271;49.464;11.070;2024-01-06T14:35:49;12.73;;;5.63;;
4517;SDS011;2271;49.464;11.070;2024-01-06T14:38:14;5.47;;;4.00;;
4517;SDS011;2271;49.464;11.070;2024-01-06T14:40:40;4.93;;;3.93;;
4517;SDS011;2271;49.464;11.070;2024-01-06T14:43:06;4.93;;;3.63;;
4517;SDS011;2271;49.464;11.070;2024-01-06T14:45:31;4.63;;;3.80;;
4517;SDS011;2271;49.464;11.070;2024-01-06T14:47:57;6.87;;;3.57;;
4517;SDS011;2271;49.464;11.070;2024-01-06T14:50:23;4.60;;;3.87;;
4517;SDS011;2271;49.464;11.070;2024-01-06T14:52:48;7.80;;;4.20;;
4517;SDS011;2271;49.464;11.070;2024-01-06T14:55:14;10.27;;;4.37;;